METAR Data
IDs: Format: Raw Decoded Include TAF

Data at: 1519 UTC 21 Sep 2018

KSYM 211515Z AUTO 22012G20KT 10SM FEW065 28/19 A3013 RMK AO2
KSYM 211455Z AUTO 21011G17KT 10SM CLR 28/19 A3013 RMK AO2
KSYM 211435Z AUTO 19010KT 160V230 10SM CLR 27/19 A3012 RMK AO2
KSYM 211415Z AUTO 19007G13KT 140V220 10SM CLR 27/19 A3012 RMK AO2
KSYM 211355Z AUTO 19010KT 10SM CLR 26/19 A3013 RMK AO2
KSYM 211335Z AUTO 19010KT 10SM CLR 25/19 A3013 RMK AO2
KSYM 211315Z AUTO 19010G15KT 10SM CLR 25/19 A3012 RMK AO2
KSYM 211255Z AUTO 19009KT 10SM CLR 24/19 A3013 RMK AO2
KSYM 211235Z AUTO 18007KT 10SM CLR 24/19 A3013 RMK AO2
KSYM 211215Z AUTO 18008KT 10SM CLR 23/19 A3012 RMK AO2
KSYM 211155Z AUTO 18008KT 10SM CLR 23/19 A3012 RMK AO2
KSYM 211135Z AUTO 18007KT 10SM CLR 23/19 A3012 RMK AO2
KSYM 211115Z AUTO 18008KT 10SM CLR 23/19 A3011 RMK AO2
KSYM 211055Z AUTO 18007KT 10SM FEW060 23/19 A3011 RMK AO2
KSYM 211035Z AUTO 18007KT 10SM FEW055 23/19 A3011 RMK AO2
KSYM 211015Z AUTO 18008KT 10SM FEW055 23/19 A3011 RMK AO2
KSYM 210955Z AUTO 18007KT 10SM FEW055 23/20 A3011 RMK AO2
KSYM 210935Z AUTO 18007KT 10SM FEW055 23/20 A3011 RMK AO2
KSYM 210915Z AUTO 18006KT 10SM CLR 23/20 A3010 RMK AO2
KSYM 210855Z AUTO 18007KT 10SM CLR 23/20 A3010 RMK AO2
KSYM 210835Z AUTO 19007KT 10SM CLR 23/20 A3009 RMK AO2
KSYM 210815Z AUTO 18007KT 10SM CLR 22/20 A3009 RMK AO2
KSYM 210755Z AUTO 17005KT 10SM CLR 22/20 A3009 RMK AO2
KSYM 210735Z AUTO 16006KT 10SM CLR 22/20 A3009 RMK AO2
KSYM 210715Z AUTO 16005KT 10SM CLR 22/20 A3009 RMK AO2
KSYM 210655Z AUTO 17005KT 10SM CLR 22/20 A3009 RMK AO2
KSYM 210635Z AUTO 16005KT 10SM CLR 22/21 A3009 RMK AO2
KSYM 210615Z AUTO 16004KT 10SM CLR 23/21 A3010 RMK AO2
KSYM 210555Z AUTO 16004KT 10SM CLR 23/21 A3009 RMK AO2
KSYM 210535Z AUTO 16004KT 10SM CLR 22/21 A3009 RMK AO2
KSYM 210515Z AUTO 17005KT 10SM CLR 22/21 A3010 RMK AO2
KSYM 210455Z AUTO 16004KT 10SM CLR 23/21 A3009 RMK AO2
KSYM 210435Z AUTO 17003KT 10SM CLR 23/21 A3009 RMK AO2
KSYM 210415Z AUTO 15004KT 10SM CLR 23/21 A3010 RMK AO2
KSYM 210355Z AUTO 15003KT 10SM CLR 23/21 A3009 RMK AO2
KSYM 210335Z AUTO 15004KT 10SM CLR 23/21 A3009 RMK AO2
KSYM 210315Z AUTO 16004KT 10SM CLR 24/21 A3009 RMK AO2
KSYM 210255Z AUTO 17005KT 10SM CLR 24/21 A3009 RMK AO2
KSYM 210235Z AUTO 17004KT 10SM CLR 24/22 A3009 RMK AO2
KSYM 210215Z AUTO 17004KT 10SM CLR 24/22 A3010 RMK AO2
KSYM 210155Z AUTO 16003KT 10SM CLR 25/22 A3010 RMK AO2
KSYM 210135Z AUTO 00000KT 10SM CLR 25/22 A3009 RMK AO2
KSYM 210115Z AUTO 00000KT 10SM CLR 25/22 A3009 RMK AO2
KSYM 210055Z AUTO 00000KT 10SM CLR 26/22 A3008 RMK AO2
KSYM 210035Z AUTO 16003KT 10SM CLR 26/21 A3008 RMK AO2
KSYM 210015Z AUTO 00000KT 10SM CLR 26/21 A3008 RMK AO2
KSYM 202355Z AUTO 00000KT 10SM CLR 27/21 A3008 RMK AO2
KSYM 202335Z AUTO 19003KT 10SM CLR 27/21 A3008 RMK AO2
KSYM 202315Z AUTO 00000KT 10SM CLR 28/21 A3008 RMK AO2
KSYM 202255Z AUTO 00000KT 10SM CLR 29/22 A3008 RMK AO2
KSYM 202235Z AUTO 00000KT 10SM CLR 29/21 A3008 RMK AO2
KSYM 202215Z AUTO 18004KT 10SM FEW045 30/21 A3008 RMK AO2
KSYM 202155Z AUTO 17005KT 10SM FEW050 30/21 A3009 RMK AO2
KSYM 202135Z AUTO 17004KT 10SM FEW048 FEW055 31/21 A3008 RMK AO2
KSYM 202115Z AUTO 15004KT 10SM SCT050 SCT055 31/21 A3009 RMK AO2
KSYM 202055Z AUTO 18004KT 10SM FEW050 SCT055 31/20 A3009 RMK AO2
KSYM 202035Z AUTO 17005KT 10SM FEW049 31/20 A3009 RMK AO2
KSYM 202015Z AUTO 22007KT 10SM CLR 32/20 A3009 RMK AO2
KSYM 201955Z AUTO VRB04KT 10SM CLR 32/20 A3010 RMK AO2
KSYM 201935Z AUTO 00000KT 10SM CLR 31/20 A3010 RMK AO2
KSYM 201915Z AUTO VRB05KT 10SM CLR 32/20 A3010 RMK AO2
KSYM 201855Z AUTO VRB03KT 10SM FEW046 31/21 A3011 RMK AO2
KSYM 201835Z AUTO VRB05KT 10SM FEW046 31/20 A3011 RMK AO2
KSYM 201815Z AUTO VRB06KT 10SM FEW044 31/20 A3012 RMK AO2
KSYM 201755Z AUTO 16004KT 10SM FEW041 31/21 A3013 RMK AO2
KSYM 201735Z AUTO VRB03KT 10SM FEW040 30/20 A3013 RMK AO2
KSYM 201715Z AUTO 21005KT 10SM CLR 31/21 A3014 RMK AO2
KSYM 201655Z AUTO 23005G11KT 10SM CLR 30/21 A3014 RMK AO2
KSYM 201635Z AUTO 20004G10KT 10SM CLR 30/21 A3015 RMK AO2
KSYM 201615Z AUTO VRB05KT 10SM CLR 30/21 A3015 RMK AO2
KSYM 201555Z AUTO VRB03KT 10SM CLR 29/21 A3016 RMK AO2
KSYM 201535Z AUTO 20005KT 10SM CLR 29/21 A3016 RMK AO2
KSYM 201515Z AUTO 22004KT 10SM CLR 28/22 A3016 RMK AO2
KSYM 201455Z AUTO 19005KT 10SM CLR 28/21 A3016 RMK AO2
KSYM 201435Z AUTO 21005KT 10SM CLR 27/21 A3016 RMK AO2
KSYM 201415Z AUTO 00000KT 10SM CLR 27/21 A3016 RMK AO2
KSYM 201355Z AUTO 15004KT 10SM CLR 26/21 A3015 RMK AO2
KSYM 201335Z AUTO 16003KT 10SM CLR 25/21 A3014 RMK AO2
KSYM 201315Z AUTO 00000KT 10SM CLR 24/21 A3014 RMK AO2
KSYM 201255Z AUTO 00000KT 10SM CLR 23/21 A3014 RMK AO2
KSYM 201235Z AUTO 16003KT 10SM CLR 22/21 A3013 RMK AO2
KSYM 201215Z AUTO 00000KT 9SM CLR 21/20 A3013 RMK AO2
KSYM 201155Z AUTO 00000KT 10SM CLR 21/20 A3013 RMK AO2
KSYM 201135Z AUTO 00000KT 5SM BR CLR 21/20 A3012 RMK AO2
KSYM 201115Z AUTO 00000KT 8SM CLR 21/20 A3011 RMK AO2
KSYM 201055Z AUTO 00000KT 10SM CLR 21/20 A3010 RMK AO2
KSYM 201035Z AUTO 00000KT 4SM BR SCT055 SCT065 21/20 A3010 RMK AO2
KSYM 201015Z AUTO 00000KT 8SM BKN055 BKN065 21/20 A3010 RMK AO2
KSYM 200955Z AUTO 00000KT 2 1/2SM BR SCT050 BKN065 21/20 A3009 RMK AO2 VIS 1 1/2V5
KSYM 200935Z AUTO 00000KT 3SM BR FEW043 BKN055 BKN065 21/20 A3009 RMK AO2
KSYM 200915Z AUTO 00000KT 3SM BR FEW041 SCT050 BKN055 21/20 A3008 RMK AO2
KSYM 200855Z AUTO 00000KT 6SM BR FEW042 BKN050 21/21 A3008 RMK AO2
KSYM 200835Z AUTO 00000KT 4SM BR SCT042 BKN050 21/21 A3007 RMK AO2
KSYM 200815Z AUTO 00000KT 1 3/4SM BR BKN042 BKN050 21/20 A3007 RMK AO2
KSYM 200755Z AUTO 15003KT 2SM BR SCT041 BKN050 21/20 A3006 RMK AO2
KSYM 200735Z AUTO 17003KT 5SM BR FEW041 SCT048 21/21 A3006 RMK AO2
KSYM 200715Z AUTO 15003KT 3SM BR FEW047 21/20 A3006 RMK AO2
KSYM 200655Z AUTO 00000KT 5SM BR FEW046 FEW060 21/21 A3006 RMK AO2
KSYM 200635Z AUTO 15004KT 10SM FEW045 FEW060 22/21 A3006 RMK AO2
KSYM 200615Z AUTO 16004KT 8SM FEW044 22/21 A3006 RMK AO2
KSYM 200555Z AUTO 16004KT 8SM CLR 22/21 A3006 RMK AO2
KSYM 200535Z AUTO 14004KT 10SM FEW046 FEW055 22/21 A3006 RMK AO2
KSYM 200515Z AUTO 15003KT 4SM BR CLR 22/21 A3007 RMK AO2
KSYM 200455Z AUTO 00000KT 2 1/2SM BR CLR 22/21 A3007 RMK AO2
KSYM 200435Z AUTO 15003KT 2 1/2SM BR CLR 22/21 A3007 RMK AO2
KSYM 200415Z AUTO 00000KT 1 1/2SM BR SCT050 22/22 A3007 RMK AO2
KSYM 200355Z AUTO 00000KT 6SM BR FEW050 FEW055 23/22 A3007 RMK AO2
KSYM 200335Z AUTO 16003KT 4SM BR FEW050 23/22 A3007 RMK AO2